X  SluitMETAR luchtvaart weer gegevens      EHRD Rotterdam

Temperatuur

1°C Temperatuur

1°C Dauwpunt

100% Vochtigheid



Wind

 3 KM/U

 2 MPH

 1 M/S

 2 KTS



260°
Het Westen
Huidig weer

Mist Mist
Luchtdruk 1046.92 (hPa) - 30.92 (in)
Zicht 2.1 (mi) - 3.4 (km)
Vliegveld
Vliegveld code EHRD

Locatie Rotterdam 16 (km)

Metar:
EHRD 192355Z AUTO 26002KT 3400 BR NSC 01/01 Q1047 TEMPO 1500 BCFG

Tijd: 20-01-2020 00:55